Time;durP1;ratioP1;P1;durP2;ratioP2;P2;SDS_P1;SDS_P2;PMS_P1;PMS_P2;Temp;Humidity;BMP_temperature;BMP_pressure;BME280_temperature;BME280_humidity;BME280_pressure;Samples;Min_cycle;Max_cycle;Signal;HPM_P1;HPM_P2
2021/08/13 00:01:24;;;;;;;8.65;6.40;;;;;;;26.64;47.68;100071.94;5053615;28;20029;-36
2021/08/13 00:03:49;;;;;;;8.63;6.30;;;;;;;26.62;47.79;100074.16;5053495;28;20044;-37
2021/08/13 00:06:14;;;;;;;10.07;6.63;;;;;;;26.38;48.38;100075.09;5053458;28;20060;-37
2021/08/13 00:08:40;;;;;;;8.55;6.50;;;;;;;26.33;48.63;100072.47;5053585;28;20028;-37
2021/08/13 00:11:05;;;;;;;10.05;6.53;;;;;;;26.43;48.57;100083.19;5053289;28;20025;-37
2021/08/13 00:13:31;;;;;;;8.30;6.45;;;;;;;26.45;48.15;100078.25;5053274;28;20491;-37
2021/08/13 00:15:56;;;;;;;8.55;6.80;;;;;;;26.18;49.00;100067.28;5053457;28;20032;-37
2021/08/13 00:18:22;;;;;;;10.25;6.97;;;;;;;26.21;48.81;100080.31;5052109;28;20043;-37
2021/08/13 00:20:47;;;;;;;11.80;7.35;;;;;;;26.45;48.69;100085.63;5053638;28;20028;-36
2021/08/13 00:23:13;;;;;;;11.63;7.75;;;;;;;26.52;48.14;100086.84;5051710;28;20032;-37
2021/08/13 00:25:38;;;;;;;9.10;7.60;;;;;;;26.42;48.38;100081.56;5053100;28;20017;-36
2021/08/13 00:28:04;;;;;;;12.57;8.30;;;;;;;26.32;48.66;100081.75;5053035;28;20444;-36
2021/08/13 00:30:29;;;;;;;12.73;8.73;;;;;;;26.25;48.70;100075.88;5052995;28;20025;-36
2021/08/13 00:32:55;;;;;;;12.05;8.95;;;;;;;26.08;49.10;100079.19;5052978;28;20082;-37
2021/08/13 00:35:20;;;;;;;12.77;8.43;;;;;;;26.28;48.61;100075.31;5052833;28;20025;-37
2021/08/13 00:37:46;;;;;;;12.93;9.23;;;;;;;26.19;48.79;100075.16;5052809;28;20028;-37
2021/08/13 00:40:11;;;;;;;10.38;8.77;;;;;;;26.33;48.53;100080.66;5052871;28;20036;-37
2021/08/13 00:42:37;;;;;;;12.93;8.93;;;;;;;26.46;48.11;100077.13;5051429;28;20515;-37
2021/08/13 00:45:04;;;;;;;9.32;8.23;;;;;;;26.43;48.13;100085.94;5053018;28;20021;-37
2021/08/13 00:47:29;;;;;;;10.85;8.20;;;;;;;26.49;47.86;100076.53;5052613;28;20032;-36
2021/08/13 00:49:55;;;;;;;10.45;7.38;;;;;;;26.42;47.84;100080.78;5052751;28;20025;-36
2021/08/13 00:52:20;;;;;;;9.80;7.25;;;;;;;26.44;48.06;100082.06;5051414;28;20025;-36
2021/08/13 00:54:46;;;;;;;9.82;8.02;;;;;;;26.54;47.75;100072.91;5051371;28;20051;-37
2021/08/13 00:57:11;;;;;;;9.80;7.28;;;;;;;26.24;48.35;100075.09;5050707;28;20480;-37
2021/08/13 00:59:40;;;;;;;8.75;7.32;;;;;;;26.14;48.75;100072.53;5052005;28;20382;-36
2021/08/13 01:02:07;;;;;;;7.88;7.05;;;;;;;26.39;48.00;100081.34;5051158;28;20031;-36
2021/08/13 01:04:32;;;;;;;10.55;6.70;;;;;;;26.50;47.38;100077.34;5051355;28;20017;-36
2021/08/13 01:06:58;;;;;;;8.52;6.63;;;;;;;26.37;48.01;100083.59;5052202;28;20064;-36
2021/08/13 01:09:24;;;;;;;10.65;6.63;;;;;;;26.46;47.91;100081.78;5052594;28;20109;-37
2021/08/13 01:11:55;;;;;;;9.35;6.47;;;;;;;26.58;47.48;100081.28;5051016;28;20444;-37
2021/08/13 01:14:30;;;;;;;9.77;6.75;;;;;;;26.70;47.21;100085.16;5052334;28;20031;-37
2021/08/13 01:16:55;;;;;;;7.13;6.43;;;;;;;26.68;47.34;100086.59;5051000;28;20021;-38
2021/08/13 01:19:59;;;;;;;10.00;7.05;;;;;;;26.80;47.05;100092.34;5050828;28;20087;-37
2021/08/13 01:22:56;;;;;;;7.70;6.18;;;;;;;26.72;47.14;100091.13;5052255;28;20396;-36
2021/08/13 01:25:26;;;;;;;8.77;6.82;;;;;;;26.66;47.38;100094.28;5046485;28;20033;-36
2021/08/13 01:27:51;;;;;;;8.65;6.30;;;;;;;26.61;47.37;100095.16;5034094;28;20437;-37
2021/08/13 01:30:18;;;;;;;8.23;6.32;;;;;;;26.59;47.50;100100.13;5034295;28;20094;-36
2021/08/13 01:32:56;;;;;;;9.60;6.18;;;;;;;26.60;47.09;100098.19;5050473;28;20044;-37
2021/08/13 01:35:25;;;;;;;11.82;6.57;;;;;;;26.56;47.52;100099.88;5050546;28;20021;-37
2021/08/13 01:38:02;;;;;;;9.60;6.07;;;;;;;26.57;47.25;100102.31;5051914;28;20504;-37
2021/08/13 01:40:27;;;;;;;6.60;5.90;;;;;;;26.50;47.31;100104.63;5050788;28;20025;-37
2021/08/13 01:42:53;;;;;;;7.47;6.13;;;;;;;26.64;47.17;100110.94;5050279;28;20028;-37
2021/08/13 01:45:23;;;;;;;9.07;6.20;;;;;;;26.72;47.16;100112.97;5050340;28;20385;-37
2021/08/13 01:47:49;;;;;;;7.50;5.85;;;;;;;26.82;46.73;100111.16;5051428;28;20024;-36
2021/08/13 01:50:15;;;;;;;9.85;6.03;;;;;;;26.64;47.29;100118.31;5033580;28;20021;-37
2021/08/13 01:52:40;;;;;;;8.50;6.35;;;;;;;26.77;47.10;100125.72;5051738;28;20457;-37
2021/08/13 01:55:06;;;;;;;7.88;6.38;;;;;;;26.83;46.68;100119.03;5033764;28;20455;-36
2021/08/13 01:57:31;;;;;;;9.82;6.70;;;;;;;26.75;47.07;100125.22;5033565;28;20024;-37
2021/08/13 01:59:57;;;;;;;10.73;6.07;;;;;;;26.69;47.30;100124.50;5051420;28;20033;-37
2021/08/13 02:02:23;;;;;;;10.43;6.97;;;;;;;26.55;47.76;100129.09;5033338;28;20085;-37
2021/08/13 02:04:51;;;;;;;10.50;6.68;;;;;;;26.69;47.52;100132.69;5051053;28;20413;-37
2021/08/13 02:07:16;;;;;;;11.52;7.10;;;;;;;26.67;47.71;100129.47;5014419;28;20050;-37
2021/08/13 02:09:41;;;;;;;8.98;6.78;;;;;;;26.71;47.38;100135.09;5013826;28;20025;-37
2021/08/13 02:12:07;;;;;;;9.60;7.07;;;;;;;26.67;47.56;100137.66;5031232;28;20033;-37
2021/08/13 02:14:32;;;;;;;8.32;6.78;;;;;;;26.65;47.74;100137.09;5029728;28;20026;-37
2021/08/13 02:16:58;;;;;;;11.70;6.97;;;;;;;26.70;47.49;100139.75;5030030;28;20044;-36
2021/08/13 02:19:36;;;;;;;8.85;6.90;;;;;;;26.70;47.73;100138.94;5031153;28;20469;-37
2021/08/13 02:22:01;;;;;;;10.05;7.35;;;;;;;26.76;47.43;100142.41;5029819;28;20029;-37
2021/08/13 02:24:27;;;;;;;9.23;7.20;;;;;;;26.68;47.59;100133.78;5030976;28;20032;-36
2021/08/13 02:26:53;;;;;;;8.93;6.80;;;;;;;26.58;47.58;100146.78;5031205;28;20080;-36
2021/08/13 02:29:18;;;;;;;8.98;6.95;;;;;;;26.60;47.42;100142.69;5030695;28;20022;-37
2021/08/13 02:31:44;;;;;;;11.02;7.13;;;;;;;26.57;47.68;100148.69;5030059;28;20449;-37
2021/08/13 02:34:09;;;;;;;13.25;7.40;;;;;;;26.61;47.53;100146.22;5030919;28;20491;-37
2021/08/13 02:37:00;;;;;;;11.20;7.20;;;;;;;26.44;47.98;100152.22;5030999;28;20120;-37
2021/08/13 02:39:46;;;;;;;8.38;6.82;;;;;;;26.74;47.19;100155.53;5029194;28;20049;-37
2021/08/13 02:42:13;;;;;;;9.70;6.65;;;;;;;26.78;47.34;100157.34;5030649;28;20029;-36
2021/08/13 02:44:38;;;;;;;8.95;6.65;;;;;;;26.75;47.42;100159.88;5029524;28;20029;-36
2021/08/13 02:47:05;;;;;;;12.40;7.63;;;;;;;26.76;47.46;100153.31;5029214;28;20032;-37
2021/08/13 02:49:31;;;;;;;12.10;7.18;;;;;;;26.72;47.45;100156.63;5029221;28;20022;-36
2021/08/13 02:52:05;;;;;;;13.07;7.03;;;;;;;26.25;48.49;100144.88;5030519;28;20087;-36
2021/08/13 02:54:31;;;;;;;10.02;7.60;;;;;;;26.22;48.49;100156.41;5012710;28;20029;-37
2021/08/13 02:56:57;;;;;;;9.38;7.15;;;;;;;25.89;49.34;100160.97;5029169;28;20025;-37
2021/08/13 02:59:24;;;;;;;9.90;7.18;;;;;;;26.20;48.27;100160.50;5030381;28;20025;-37
2021/08/13 03:01:51;;;;;;;8.80;7.25;;;;;;;26.25;48.11;100160.44;5030327;28;20041;-36
2021/08/13 03:04:17;;;;;;;9.63;7.13;;;;;;;26.44;47.57;100149.47;5030440;28;20104;-36
2021/08/13 03:06:42;;;;;;;13.32;11.10;;;;;;;26.20;47.85;100152.34;5026718;28;20527;-37
2021/08/13 03:09:08;;;;;;;38.55;25.45;;;;;;;26.25;47.63;100161.25;5048850;28;20098;-36
2021/08/13 03:11:33;;;;;;;44.10;30.90;;;;;;;26.13;48.20;100156.25;5050420;28;20400;-37
2021/08/13 03:13:59;;;;;;;36.80;27.35;;;;;;;25.91;48.47;100153.31;5050014;28;20048;-37
2021/08/13 03:16:24;;;;;;;16.50;12.98;;;;;;;25.84;48.56;100147.44;5048815;28;20049;-37
2021/08/13 03:18:50;;;;;;;13.07;7.60;;;;;;;25.86;48.40;100154.19;5048682;28;20032;-37
2021/08/13 03:21:15;;;;;;;8.77;7.13;;;;;;;26.09;47.92;100159.88;5049347;28;20028;-37
2021/08/13 03:23:41;;;;;;;12.18;7.60;;;;;;;26.17;47.75;100159.19;5048928;28;20372;-37
2021/08/13 03:26:06;;;;;;;8.88;7.25;;;;;;;26.09;47.80;100163.41;5050110;28;20029;-37
2021/08/13 03:28:33;;;;;;;11.52;7.70;;;;;;;26.00;48.24;100158.94;5050042;28;20025;-36
2021/08/13 03:30:59;;;;;;;14.80;7.63;;;;;;;26.16;47.60;100159.50;5048698;28;20035;-36
2021/08/13 03:33:24;;;;;;;10.52;7.22;;;;;;;26.23;47.54;100163.47;5049773;28;20033;-37
2021/08/13 03:35:50;;;;;;;11.88;7.38;;;;;;;26.29;47.43;100161.47;5048196;28;20029;-37
2021/08/13 03:38:15;;;;;;;15.73;7.30;;;;;;;26.19;47.86;100158.91;5049665;28;20036;-36
2021/08/13 03:40:41;;;;;;;25.27;19.30;;;;;;;26.19;47.81;100167.09;5050112;28;20025;-36
2021/08/13 03:43:06;;;;;;;22.23;17.73;;;;;;;26.18;47.80;100162.72;5049635;28;20032;-36
2021/08/13 03:45:32;;;;;;;19.70;15.05;;;;;;;26.40;47.34;100160.19;5049612;28;20040;-36
2021/08/13 03:47:57;;;;;;;28.80;18.63;;;;;;;26.33;47.39;100157.03;5049702;28;20025;-36
2021/08/13 03:50:23;;;;;;;14.75;8.07;;;;;;;26.36;47.56;100158.34;5049606;28;20028;-36
2021/08/13 03:52:48;;;;;;;16.30;8.13;;;;;;;26.30;47.69;100155.72;5049762;28;20052;-37
2021/08/13 03:55:13;;;;;;;13.40;8.20;;;;;;;26.23;47.64;100159.94;5049614;28;20083;-37
2021/08/13 03:57:42;;;;;;;13.05;8.52;;;;;;;26.26;47.97;100162.06;5049690;28;20029;-37
2021/08/13 04:00:08;;;;;;;16.63;8.95;;;;;;;26.46;47.42;100163.63;5049559;28;20083;-37
2021/08/13 04:02:34;;;;;;;22.23;10.05;;;;;;;26.50;47.04;100164.66;5049553;28;20086;-36
2021/08/13 04:04:59;;;;;;;16.15;9.57;;;;;;;26.59;46.88;100168.34;5049013;28;20491;-36
2021/08/13 04:07:25;;;;;;;14.55;9.40;;;;;;;26.60;47.27;100164.50;5029370;28;20053;-36
2021/08/13 04:09:50;;;;;;;14.43;9.88;;;;;;;26.75;46.54;100160.69;5029398;28;20021;-37
2021/08/13 04:12:16;;;;;;;14.13;8.88;;;;;;;27.19;45.68;100163.91;5029604;28;20033;-36
2021/08/13 04:14:41;;;;;;;11.65;8.70;;;;;;;27.26;45.43;100167.09;5029687;28;20033;-37
2021/08/13 04:17:07;;;;;;;12.88;8.18;;;;;;;27.69;44.06;100172.19;5029609;28;20396;-36
2021/08/13 04:19:32;;;;;;;14.90;8.75;;;;;;;27.90;43.68;100172.56;5029553;28;20041;-37
2021/08/13 04:21:58;;;;;;;10.48;8.55;;;;;;;28.13;43.09;100176.13;5029524;28;20111;-37
2021/08/13 04:24:23;;;;;;;14.98;8.80;;;;;;;28.17;43.02;100168.91;5029381;28;20029;-37
2021/08/13 04:26:48;;;;;;;13.18;9.10;;;;;;;28.30;42.80;100178.16;5029369;28;20021;-37
2021/08/13 04:29:14;;;;;;;16.95;9.38;;;;;;;28.53;42.16;100178.97;5029586;28;20026;-37
2021/08/13 04:31:39;;;;;;;13.52;8.27;;;;;;;28.76;41.38;100174.25;5029501;28;20404;-36
2021/08/13 04:34:05;;;;;;;10.52;8.50;;;;;;;29.02;40.94;100179.84;5031646;28;20033;-37
2021/08/13 04:36:31;;;;;;;12.90;9.35;;;;;;;29.37;39.95;100179.16;5032911;28;20025;-37
2021/08/13 04:38:57;;;;;;;23.45;14.82;;;;;;;29.42;40.17;100184.50;5032824;28;20116;-37
2021/08/13 04:41:22;;;;;;;14.93;10.93;;;;;;;29.82;39.31;100187.97;5032875;28;20028;-36
2021/08/13 04:43:48;;;;;;;13.77;9.10;;;;;;;29.95;39.33;100196.34;5032848;28;20044;-37
2021/08/13 04:46:13;;;;;;;11.15;8.80;;;;;;;30.27;38.62;100189.56;5032866;28;20412;-37
2021/08/13 04:48:38;;;;;;;11.23;8.80;;;;;;;30.46;37.48;100191.16;5032703;28;20030;-37
2021/08/13 04:51:04;;;;;;;15.35;12.00;;;;;;;30.41;37.21;100194.91;5031263;28;20029;-37
2021/08/13 04:53:30;;;;;;;12.02;7.75;;;;;;;30.72;37.17;100196.59;5032692;28;20032;-36
2021/08/13 04:55:55;;;;;;;9.13;8.05;;;;;;;30.77;36.31;100205.47;5032767;28;20044;-37
2021/08/13 04:58:21;;;;;;;12.75;7.90;;;;;;;31.17;35.93;100210.66;5032392;28;20033;-37
2021/08/13 05:00:47;;;;;;;12.48;7.65;;;;;;;31.47;34.95;100194.22;5032643;28;20048;-37
2021/08/13 05:03:13;;;;;;;12.18;7.20;;;;;;;31.66;34.72;100209.44;5032394;28;20026;-37
2021/08/13 05:05:38;;;;;;;12.38;6.82;;;;;;;31.74;34.78;100201.13;5032184;28;20065;-37
2021/08/13 05:08:05;;;;;;;9.50;6.85;;;;;;;32.07;34.29;100214.16;5032270;28;20413;-37
2021/08/13 05:10:30;;;;;;;13.15;6.60;;;;;;;32.49;33.13;100213.28;5032509;28;20029;-37
2021/08/13 05:12:55;;;;;;;8.60;6.65;;;;;;;32.40;33.16;100187.78;5032276;28;20559;-37
2021/08/13 05:15:21;;;;;;;9.90;7.35;;;;;;;32.93;32.79;100214.41;5031790;28;20099;-37
2021/08/13 05:17:46;;;;;;;9.88;6.78;;;;;;;33.51;31.86;100213.53;5032007;28;20029;-37
2021/08/13 05:20:12;;;;;;;8.23;6.38;;;;;;;33.81;31.61;100216.81;5032401;28;20056;-36
2021/08/13 05:22:37;;;;;;;7.57;6.68;;;;;;;34.00;31.36;100218.94;5031973;28;20382;-37
2021/08/13 05:25:04;;;;;;;12.38;7.20;;;;;;;34.13;31.14;100219.69;5031910;28;20036;-37
2021/08/13 05:27:30;;;;;;;10.00;6.72;;;;;;;34.07;30.75;100227.44;5031946;28;20032;-37
2021/08/13 05:29:55;;;;;;;8.45;6.05;;;;;;;34.15;30.88;100222.91;5030535;28;20017;-37
2021/08/13 05:32:22;;;;;;;8.23;6.72;;;;;;;34.50;30.29;100224.28;5032164;28;20083;-36
2021/08/13 05:34:48;;;;;;;11.38;6.30;;;;;;;34.87;29.57;100227.66;5032005;28;20025;-36
2021/08/13 05:37:13;;;;;;;7.80;6.25;;;;;;;35.03;28.97;100224.88;5032093;28;20100;-38
2021/08/13 05:39:39;;;;;;;9.85;6.65;;;;;;;35.08;29.19;100221.84;5031687;28;20025;-37
2021/08/13 05:42:05;;;;;;;7.47;6.05;;;;;;;35.57;28.77;100228.94;5031972;28;20071;-36
2021/08/13 05:44:30;;;;;;;11.27;6.00;;;;;;;35.00;29.23;100223.63;5030185;28;20030;-36
2021/08/13 05:46:56;;;;;;;15.20;6.93;;;;;;;35.32;28.95;100231.94;5031659;28;20378;-37
2021/08/13 05:49:21;;;;;;;10.05;6.15;;;;;;;35.77;28.44;100229.78;5032017;28;20017;-37
2021/08/13 05:51:47;;;;;;;15.50;6.82;;;;;;;36.10;27.77;100234.84;5031563;28;20029;-37
2021/08/13 05:54:12;;;;;;;9.55;6.28;;;;;;;36.13;27.54;100236.84;5031228;28;20032;-37
2021/08/13 05:56:38;;;;;;;9.13;6.35;;;;;;;36.05;28.06;100228.78;5031118;28;20102;-37
2021/08/13 05:59:03;;;;;;;7.18;6.40;;;;;;;36.60;26.80;100238.56;5031199;28;20076;-38
2021/08/13 06:01:29;;;;;;;8.05;6.45;;;;;;;36.71;26.76;100235.22;5031170;28;20028;-38
2021/08/13 06:03:54;;;;;;;9.50;6.03;;;;;;;36.95;26.64;100236.81;5031096;28;20033;-36
2021/08/13 06:06:20;;;;;;;12.25;6.43;;;;;;;37.23;26.27;100246.81;5031212;28;20435;-38
2021/08/13 06:08:47;;;;;;;8.55;6.55;;;;;;;37.31;25.79;100238.22;5031273;28;20026;-37
2021/08/13 06:11:12;;;;;;;11.88;6.85;;;;;;;36.55;27.19;100240.84;5031020;28;20025;-38
2021/08/13 06:13:38;;;;;;;8.25;5.93;;;;;;;37.08;26.40;100245.75;5031096;28;20034;-37
2021/08/13 06:16:04;;;;;;;8.35;6.30;;;;;;;37.31;26.05;100229.91;5030337;28;20022;-37
2021/08/13 06:18:29;;;;;;;11.68;7.00;;;;;;;37.21;25.72;100238.06;5030593;28;20048;-36
2021/08/13 06:20:55;;;;;;;9.13;6.40;;;;;;;36.75;26.84;100236.91;5030680;28;20111;-37
2021/08/13 06:23:20;;;;;;;9.55;6.30;;;;;;;36.69;26.72;100245.88;5030917;28;20137;-37
2021/08/13 06:25:46;;;;;;;9.80;6.30;;;;;;;37.33;26.07;100252.50;5029786;28;20532;-36
2021/08/13 06:28:11;;;;;;;10.85;6.80;;;;;;;36.98;26.56;100250.75;5030634;28;20040;-38
2021/08/13 06:30:37;;;;;;;8.48;6.65;;;;;;;36.95;26.51;100243.16;5030508;28;20021;-38
2021/08/13 06:33:02;;;;;;;9.93;7.03;;;;;;;37.12;26.35;100246.59;5030626;28;20018;-37
2021/08/13 06:35:28;;;;;;;12.35;7.28;;;;;;;37.25;25.99;100253.59;5030432;28;20029;-38
2021/08/13 06:37:55;;;;;;;10.15;7.03;;;;;;;37.45;25.72;100245.16;5030304;28;20032;-37
2021/08/13 06:40:20;;;;;;;10.00;6.38;;;;;;;37.72;25.35;100245.97;5030647;28;20017;-37
2021/08/13 06:42:46;;;;;;;9.15;7.07;;;;;;;37.74;25.35;100243.63;5028935;28;20025;-37
2021/08/13 06:45:14;;;;;;;11.57;6.90;;;;;;;38.05;25.20;100250.75;5030177;28;20017;-37
2021/08/13 06:47:40;;;;;;;8.30;6.53;;;;;;;37.17;26.16;100246.34;5030507;28;20028;-38
2021/08/13 06:50:06;;;;;;;8.75;6.57;;;;;;;37.05;26.35;100240.94;5030426;28;20401;-37
2021/08/13 06:52:31;;;;;;;9.40;6.20;;;;;;;37.35;25.73;100235.50;5030250;28;20071;-38
2021/08/13 06:54:57;;;;;;;9.65;7.07;;;;;;;37.74;24.99;100246.41;5030234;28;20031;-38
2021/08/13 06:57:22;;;;;;;8.52;6.60;;;;;;;37.49;25.56;100246.00;5028575;28;20485;-38
2021/08/13 06:59:48;;;;;;;10.55;7.40;;;;;;;37.05;26.93;100254.81;5030341;28;20114;-36
2021/08/13 07:02:13;;;;;;;8.52;7.43;;;;;;;36.28;28.03;100243.50;5030359;28;20401;-38
2021/08/13 07:04:39;;;;;;;11.52;8.82;;;;;;;36.71;26.66;100254.63;5030175;28;20181;-38
2021/08/13 07:07:04;;;;;;;12.93;8.82;;;;;;;36.09;27.83;100241.53;5029946;28;20054;-38
2021/08/13 07:09:30;;;;;;;15.50;9.25;;;;;;;36.12;27.97;100245.53;5030197;28;20060;-38
2021/08/13 07:11:55;;;;;;;12.07;8.25;;;;;;;35.78;28.17;100242.47;5030186;28;20026;-39
2021/08/13 07:14:21;;;;;;;11.10;8.48;;;;;;;35.91;28.53;100241.19;5030033;28;20405;-37
2021/08/13 07:16:47;;;;;;;11.85;8.23;;;;;;;36.02;28.22;100238.59;5030138;28;20025;-37
2021/08/13 07:19:12;;;;;;;10.70;7.57;;;;;;;36.76;27.06;100240.47;5030097;28;20030;-38
2021/08/13 07:21:38;;;;;;;9.45;8.15;;;;;;;36.81;27.16;100244.91;5030348;28;20499;-38
2021/08/13 07:24:04;;;;;;;11.73;7.47;;;;;;;36.81;27.06;100231.06;5030181;28;20091;-38
2021/08/13 07:26:29;;;;;;;9.85;7.53;;;;;;;35.42;28.77;100227.81;5029790;28;20460;-37
2021/08/13 07:28:55;;;;;;;11.45;7.60;;;;;;;35.38;29.10;100232.47;5030163;28;20017;-37
2021/08/13 07:31:20;;;;;;;9.35;7.85;;;;;;;35.51;28.45;100238.66;5029908;28;20022;-38
2021/08/13 07:33:46;;;;;;;10.55;6.93;;;;;;;35.04;29.31;100232.03;5028441;28;20018;-37
2021/08/13 07:36:11;;;;;;;8.48;7.68;;;;;;;34.34;29.99;100235.28;5030181;28;20032;-37
2021/08/13 07:38:40;;;;;;;11.32;7.00;;;;;;;34.76;30.33;100227.38;5030286;28;20025;-37
2021/08/13 07:41:09;;;;;;;8.55;6.60;;;;;;;35.77;28.38;100225.03;5030054;28;20021;-37
2021/08/13 07:43:34;;;;;;;9.20;6.45;;;;;;;36.07;27.92;100238.31;5029796;28;20013;-37
2021/08/13 07:46:01;;;;;;;11.20;7.30;;;;;;;35.77;28.79;100230.56;5028363;28;20056;-37
2021/08/13 07:48:26;;;;;;;10.75;7.20;;;;;;;36.36;27.25;100227.84;5029752;28;20053;-37
2021/08/13 07:50:52;;;;;;;11.23;7.70;;;;;;;35.51;28.47;100222.88;5029927;28;20041;-37
2021/08/13 07:53:17;;;;;;;10.48;7.28;;;;;;;35.92;28.09;100225.34;5029840;28;20032;-37
2021/08/13 07:55:43;;;;;;;10.07;6.80;;;;;;;36.41;26.88;100227.53;5028881;28;20029;-37
2021/08/13 07:58:08;;;;;;;10.63;6.70;;;;;;;36.62;26.62;100232.69;5028463;28;20036;-38
2021/08/13 08:00:34;;;;;;;10.10;7.40;;;;;;;36.82;26.52;100227.09;5029425;28;20485;-38
2021/08/13 08:02:59;;;;;;;9.43;6.97;;;;;;;37.04;26.53;100229.06;5029655;28;20067;-38
2021/08/13 08:05:24;;;;;;;9.98;7.25;;;;;;;37.47;26.22;100228.91;5029658;28;20366;-38
2021/08/13 08:07:50;;;;;;;10.57;7.50;;;;;;;37.75;25.56;100229.34;5031587;28;20029;-37
2021/08/13 08:10:15;;;;;;;8.73;6.80;;;;;;;36.27;26.95;100228.09;5033688;28;20032;-38
2021/08/13 08:12:41;;;;;;;9.18;6.45;;;;;;;36.79;26.74;100228.66;5033263;28;20104;-38
2021/08/13 08:15:07;;;;;;;8.88;6.60;;;;;;;36.87;26.54;100229.56;5033149;28;20390;-38
2021/08/13 08:17:32;;;;;;;9.98;7.25;;;;;;;36.09;27.49;100224.13;5032930;28;20030;-39
2021/08/13 08:19:58;;;;;;;10.63;7.40;;;;;;;35.90;28.08;100216.63;5032172;28;20021;-37
2021/08/13 08:22:23;;;;;;;10.20;7.32;;;;;;;36.10;28.19;100226.53;5033203;28;20029;-37
2021/08/13 08:24:49;;;;;;;9.80;7.43;;;;;;;35.77;28.35;100218.72;5032936;28;20086;-38
2021/08/13 08:27:14;;;;;;;10.10;7.20;;;;;;;36.16;27.94;100224.28;5033059;28;20030;-38
2021/08/13 08:29:40;;;;;;;9.70;6.78;;;;;;;34.52;30.33;100220.00;5032800;28;20091;-37
2021/08/13 08:32:05;;;;;;;11.80;6.45;;;;;;;35.50;28.84;100223.25;5032959;28;20033;-38
2021/08/13 08:34:31;;;;;;;11.90;7.00;;;;;;;35.71;28.53;100229.25;5032980;28;20029;-39
2021/08/13 08:36:56;;;;;;;8.60;6.60;;;;;;;35.57;28.71;100226.97;5032991;28;20021;-37
2021/08/13 08:39:23;;;;;;;8.57;6.57;;;;;;;35.26;29.43;100224.25;5032715;28;20127;-37
2021/08/13 08:41:48;;;;;;;6.80;6.10;;;;;;;35.84;28.50;100223.63;5032601;28;20563;-38
2021/08/13 08:44:14;;;;;;;7.72;6.22;;;;;;;36.64;27.22;100233.09;5032813;28;20026;-36
2021/08/13 08:46:39;;;;;;;10.10;6.07;;;;;;;37.33;25.79;100224.75;5032562;28;20442;-38
2021/08/13 08:49:05;;;;;;;7.40;5.72;;;;;;;37.83;25.32;100227.47;5031695;28;20393;-37
2021/08/13 08:51:30;;;;;;;8.10;6.05;;;;;;;37.89;25.41;100230.69;5031341;28;20331;-38
2021/08/13 08:53:56;;;;;;;9.05;5.78;;;;;;;37.85;25.25;100230.69;5031458;28;20025;-38
2021/08/13 08:56:24;;;;;;;7.78;5.40;;;;;;;38.21;24.97;100222.78;5032624;28;20099;-38
2021/08/13 08:58:49;;;;;;;6.82;5.70;;;;;;;39.01;23.59;100218.81;5032225;28;20029;-42
2021/08/13 09:01:15;;;;;;;8.45;5.47;;;;;;;38.16;24.28;100216.75;5032536;28;20025;-38
2021/08/13 09:03:42;;;;;;;7.30;5.78;;;;;;;37.13;25.77;100220.50;5032422;28;20116;-38
2021/08/13 09:06:08;;;;;;;7.60;5.88;;;;;;;36.92;26.15;100216.19;5032540;28;20125;-38
2021/08/13 09:08:33;;;;;;;8.63;5.90;;;;;;;36.46;27.05;100218.13;5032565;28;20187;-38
2021/08/13 09:10:59;;;;;;;9.13;5.57;;;;;;;36.82;26.44;100216.00;5032450;28;20052;-38
2021/08/13 09:13:24;;;;;;;7.90;5.93;;;;;;;36.98;26.27;100213.91;5032075;28;20025;-38
2021/08/13 09:15:51;;;;;;;8.60;5.78;;;;;;;35.94;27.72;100200.88;5032376;28;20033;-38
2021/08/13 09:18:26;;;;;;;11.45;6.00;;;;;;;35.69;27.82;100201.16;5031691;28;20079;-38
2021/08/13 09:20:59;;;;;;;8.63;5.57;;;;;;;36.44;26.78;100201.84;5032476;28;20036;-39
2021/08/13 09:23:41;;;;;;;8.40;5.50;;;;;;;36.67;26.50;100165.06;5032191;28;20049;-39
2021/08/13 09:26:11;;;;;;;7.55;5.80;;;;;;;36.54;26.93;100201.25;5031854;28;20029;-37
2021/08/13 09:28:38;;;;;;;7.90;5.68;;;;;;;37.22;25.66;100204.38;5031954;28;20044;-36
2021/08/13 09:31:13;;;;;;;6.97;5.45;;;;;;;36.91;26.15;100194.38;5031685;28;20029;-38
2021/08/13 09:33:39;;;;;;;9.88;5.75;;;;;;;36.57;26.40;100205.25;5031752;28;20112;-39
2021/08/13 09:36:05;;;;;;;7.80;5.63;;;;;;;36.90;26.11;100199.13;5031897;28;20481;-39
2021/08/13 09:38:31;;;;;;;6.88;5.50;;;;;;;36.32;27.33;100196.50;5030438;28;20018;-39
2021/08/13 09:41:11;;;;;;;6.55;5.38;;;;;;;36.84;26.17;100192.28;5031557;28;20025;-38
2021/08/13 09:43:51;;;;;;;6.75;5.25;;;;;;;37.23;25.02;100189.34;5031498;28;20045;-38
2021/08/13 09:46:16;;;;;;;7.18;5.40;;;;;;;37.45;24.38;100193.25;5014119;28;20365;-38
2021/08/13 09:48:42;;;;;;;8.18;5.60;;;;;;;37.58;24.98;100188.25;5031368;28;20422;-38
2021/08/13 09:51:27;;;;;;;6.35;5.03;;;;;;;38.08;23.98;100185.31;5031542;28;20385;-39
2021/08/13 09:54:01;;;;;;;7.88;5.45;;;;;;;36.78;26.11;100191.81;5031463;28;20037;-38
2021/08/13 09:56:31;;;;;;;8.15;5.60;;;;;;;35.45;27.24;100193.88;5031548;28;20021;-38
2021/08/13 09:59:25;;;;;;;5.95;5.30;;;;;;;35.92;27.07;100186.59;5031490;28;20056;-38
2021/08/13 10:01:51;;;;;;;6.43;5.32;;;;;;;36.31;26.92;100190.16;5022458;28;20449;-38
2021/08/13 10:04:31;;;;;;;7.20;5.63;;;;;;;36.37;26.95;100188.69;5031413;28;20034;-38
2021/08/13 10:06:56;;;;;;;7.60;5.65;;;;;;;36.22;26.31;100141.72;5030513;28;20045;-38
2021/08/13 10:09:24;;;;;;;7.88;5.53;;;;;;;36.60;26.26;100187.91;5029710;28;20032;-38
2021/08/13 10:12:00;;;;;;;7.43;5.50;;;;;;;36.56;25.88;100198.13;5031010;28;20039;-38
2021/08/13 10:14:30;;;;;;;6.32;5.30;;;;;;;36.52;26.30;100186.97;5031521;28;20060;-38
2021/08/13 10:17:11;;;;;;;5.88;5.28;;;;;;;37.10;25.60;100185.97;5031280;28;20025;-38
2021/08/13 10:19:44;;;;;;;7.13;5.88;;;;;;;36.98;25.45;100175.88;5030574;28;20057;-38
2021/08/13 10:22:10;;;;;;;8.68;5.90;;;;;;;37.86;24.28;100182.28;5030831;28;20092;-39
2021/08/13 10:24:36;;;;;;;7.40;5.70;;;;;;;37.06;25.13;100184.31;5030901;28;20017;-38
2021/08/13 10:27:03;;;;;;;9.43;6.07;;;;;;;35.81;26.54;100180.84;5030714;28;20566;-37
2021/08/13 10:29:28;;;;;;;12.85;6.22;;;;;;;36.20;26.48;100181.66;5031157;28;20022;-37
2021/08/13 10:31:55;;;;;;;9.00;6.22;;;;;;;36.54;26.12;100173.56;5031075;28;20029;-38
2021/08/13 10:34:20;;;;;;;8.48;5.90;;;;;;;37.34;24.63;100175.66;5029608;28;20049;-38
2021/08/13 10:36:46;;;;;;;6.35;5.03;;;;;;;37.80;23.66;100167.16;5030563;28;20037;-38
2021/08/13 10:39:11;;;;;;;7.45;5.97;;;;;;;37.15;24.96;100184.88;5029087;28;20036;-38
2021/08/13 10:41:38;;;;;;;7.70;5.70;;;;;;;36.59;24.66;100177.97;5030441;28;20026;-38
2021/08/13 10:44:08;;;;;;;9.40;5.50;;;;;;;36.91;24.72;100172.19;5029181;28;20495;-37
2021/08/13 10:46:34;;;;;;;7.30;5.50;;;;;;;37.41;24.18;100163.84;5030506;28;20025;-37
2021/08/13 10:48:59;;;;;;;7.22;5.63;;;;;;;37.33;24.93;100172.06;5030197;28;20025;-38
2021/08/13 10:51:26;;;;;;;9.38;6.18;;;;;;;36.77;26.39;100175.56;5028998;28;20029;-37
2021/08/13 10:54:06;;;;;;;8.23;6.00;;;;;;;36.92;25.28;100166.28;5030517;28;20036;-38
2021/08/13 10:56:38;;;;;;;9.32;5.93;;;;;;;36.62;25.63;100182.00;5029300;28;20041;-39
2021/08/13 10:59:04;;;;;;;8.40;6.10;;;;;;;35.71;26.21;100159.28;5029856;28;20389;-38
2021/08/13 11:01:29;;;;;;;6.85;5.80;;;;;;;35.68;26.84;100149.75;5030016;28;20025;-38
2021/08/13 11:03:55;;;;;;;8.50;5.78;;;;;;;36.46;26.02;100154.38;5028974;28;20028;-38
2021/08/13 11:06:35;;;;;;;6.97;5.60;;;;;;;37.07;25.04;100145.13;5029697;28;20098;-38
2021/08/13 11:09:01;;;;;;;8.25;5.85;;;;;;;36.97;24.86;100142.97;5030319;28;20105;-38
2021/08/13 11:11:51;;;;;;;6.60;5.50;;;;;;;37.15;24.81;100140.50;5030172;28;20437;-38
2021/08/13 11:14:33;;;;;;;7.70;5.63;;;;;;;36.68;25.34;100138.97;5030105;28;20095;-38
2021/08/13 11:16:59;;;;;;;7.40;5.57;;;;;;;36.84;25.19;100136.03;5030225;28;20045;-38
2021/08/13 11:19:24;;;;;;;6.85;5.70;;;;;;;37.21;24.61;100121.56;5030061;28;20108;-38
2021/08/13 11:21:55;;;;;;;9.43;5.97;;;;;;;37.94;23.62;100122.88;5029915;28;20571;-37